Aviation Digital Data Service (ADDS)

Output produced by METARs form (0642 UTC 24 March 2019)
found at http://www.aviationweather.gov/metar/data/
 
ENAT 240550Z AUTO 18004KT 140V220 9999 NCD M04/M08 Q0980 RMK WIND 700FT 19008KT
TAF ENAT 240500Z 2406/2415 VRB05KT 9999 SCT030 
     TEMPO 2410/2415 2000 SHSN VV007 
     BECMG 2414/2415 34012KT
       
ENAN 240620Z AUTO 32020KT 9999 SCT016/// BKN022/// OVC033/// 04/01 Q0984
ENAN 2406/2506 32020KT 9999 -SHRASN FEW008 BKN020 
     TEMPO 2406/2506 3000 SHRASNGS BKN008 SCT014CB 
     TEMPO 2406/2409 33028G42KT 
     TEMPO 2409/2421 34025G35KT 
     TEMPO 2423/2506 34008KT
       
ENML 240620Z AUTO 29007KT //// R07///// -SHRA FEW020/// OVC027/// 03/01 Q1009
ENNA 240620Z AUTO 36002KT 9999 NCD M02/M08 Q0980 RMK WIND 1800FT 28011KT
ENNA 2406/2506 17008KT 9999 FEW030 BKN050 
     TEMPO 2414/2502 34018G28KT 
     TEMPO 2413/2421 2000 SHSN VV008
       
ENDU 240620Z AUTO 24003KT 6000 -SN ///026/// 00/M00 Q0982 RMK WIND 1100FT 25008KT WIND 2200FT 28018KT
ENDU 2406/2506 29008KT 8000 -SHSN FEW010 BKN020 
     TEMPO 2406/2421 1200 SHSN VV008 
     TEMPO 2408/2415 28018G30KT
       
ENBR 240620Z 22012KT 190V260 9999 VCSH FEW015CB SCT020 BKN030 05/02 Q1016 RESHRA TEMPO 4000 SHRA BKN012CB RMK WIND 1200FT 24023KT
ENBR 2406/2506 23015KT 9999 -SHRA FEW020TCU SCT040 
     TEMPO 2406/2421 22015G25KT 4000 SHRA SCT008 BKN012CB 
     PROB30 
     TEMPO 2409/2415 3000 TSGS 
     BECMG 2415/2417 VRB05KT 
     BECMG 2500/2503 35010KT
       
ENBO 240620Z 25034KT 9000 -SHSNRA FEW010 SCT015 BKN020 02/M03 Q0993
ENBO 2406/2506 26035G45KT 9999 -SHRA FEW015TCU BKN025 
     BECMG 2406/2409 31022KT 
     TEMPO 2406/2506 3000 SHRASNGS BKN012CB 
     BECMG 2419/2422 34012KT
       
ENBN 240620Z AUTO 27019G32KT 230V290 //// OVC048/// 03/M06 Q1002
ENEV 240620Z AUTO 31007KT 250V350 9999 DZ FEW016/// SCT028/// OVC037/// 03/00 Q0986 RMK WIND 1400FT 29023KT
ENFL 240620Z 22019KT 9999 FEW012 BKN015 06/03 Q1012
ENHD 240620Z AUTO 22015KT 8000 FEW023/// SCT090/// 06/04 Q1018
TAF ENHD 240500Z 2406/2415 21012KT 9999 -SHRA FEW020TCU SCT040 
     TEMPO 2406/2415 21015G25KT 4000 SHRA SCT009 BKN014CB 
     PROB30 
     TEMPO 2406/2414 TSGS
       
ENKR 240620Z AUTO 18006KT 9999 NCD M05/M08 Q0979 RMK WIND 731FT 19005KT
TAF ENKR 240500Z 2406/2415 22008KT CAVOK
       
ENCN 240620Z 21007KT 9999 FEW040 04/03 Q1021
TAF ENCN 240500Z 2406/2415 26008KT 9999 FEW020 SCT040 
     TEMPO 2409/2415 25015G25KT SHRA
       
ENKB 240620Z 23015KT 9999 VCSH FEW015TCU SCT020 BKN040 04/01 Q1007 RMK WIND 745FT 24027KT
TAF ENKB 240500Z 2406/2415 22018KT 9999 -SHRA FEW025TCU SCT040 
     TEMPO 2406/2412 25020G38KT 2500 SHRAGS SCT012CB BKN014 
     PROB30 
     TEMPO 2406/2412 TS 
     BECMG 2410/2412 23010G20KT
       
ENOL 240620Z 22008KT 7000 -SNRA SCT002 BKN006 01/00 Q1007 BECMG VRB07KT TEMPO 1000 SN VV004
ENOL 2406/2506 25010KT 7000 -SN BKN010 
     BECMG 2406/2408 VRB07KT 
     TEMPO 2406/2419 1000 SN VV004 
     BECMG 2417/2420 05012KT SCT050 
     BECMG 2502/2505 27008KT
       
ENGM 240620Z 20012KT CAVOK M01/M06 Q1015 NOSIG
ENGM 2406/2506 18012KT 9999 FEW030 SCT070 
     BECMG 2415/2418 VRB05KT 
     PROB30 2500/2505 0800 FZFG VV002 
     BECMG 2503/2505 01010KT
       
ENRO 240620Z AUTO VRB01KT 9999NDV FEW140/// M03/M08 Q1006
ENRY 240620Z AUTO 20007KT 9999NDV NCD 03/M03 Q1018
ENRY 2406/2506 23012KT 9999 FEW030 SCT070 
     PROB30 
     TEMPO 2411/2416 23015G25KT 
     BECMG 2420/2422 VRB05KT 
     TEMPO 2420/2424 SHRAGS FEW015CB BKN020 
     PROB30 2500/2504 0500 FZFG VV001 
     BECMG 2504/2506 01010KT
       
ENZV 240620Z 19008KT 9999 FEW006 SCT070 04/04 Q1020 NOSIG
ENZV 2406/2506 20015KT 9999 -SHRA FEW020TCU SCT040 
     TEMPO 2406/2421 4000 SHRA SCT009 BKN014CB 
     PROB30 
     TEMPO 2409/2415 TSGS 
     BECMG 2415/2418 27008KT 
     BECMG 2421/2424 35010KT 
     TEMPO 2422/2506 35015G25KT 3000 SHSNRA SCT012CB BKN014
       
ENTO 240620Z AUTO 21011KT 9999 NCD 03/M02 Q1017
ENTO 2406/2506 24012KT 9999 FEW030 SCT070 
     TEMPO 2409/2416 22015G25KT 
     BECMG 2418/2420 VRB05KT 
     PROB30 
     TEMPO 2420/2424 SHRAGS FEW015CB BKN020 
     BECMG 2502/2504 36010KT
       
ENTC 240620Z 20004KT 9999 SCT013 BKN045 01/M00 Q0982 RMK WIND 2600FT 29012KT
ENTC 2406/2506 VRB08KT 9999 FEW015 BKN030 
     TEMPO 2407/2416 2000 SHSNRA VV008
       
ENVA 240620Z 25006KT 1600 R09/1700N R27/1800D SN VV006 00/M00 Q1007 TEMPO 0800 SN RMK WIND 670FT /////KT
ENVA 2406/2506 24008KT 4000 -RASN BKN012 
     TEMPO 2406/2422 0800 SNRA VV005 
     BECMG 2420/2422 CAVOK 
     PROB30 2500/2506 1200 BCFG BKN002
       
ENAL 240620Z 22022KT 9999 -DZ FEW008 SCT022 BKN030 05/02 Q1009
TAF ENAL 240500Z 2406/2415 24018KT 9999 -SHRA FEW015TCU SCT030 
     TEMPO 2406/2412 23020G38KT 2500 SHRAGS SCT012CB BKN014 
     PROB30 
     TEMPO 2406/2412 TS